Climax, MI (49034)

9:08 AM EST on January 31, 2015 (GMT -0500)
Kellogg | Change Station
CLOSE
Current Station
Airport
Location: Battle Creek,
Elevation: 951 ft
Nearby Weather Stations
Active Advisory: Winter Weather Advisory

Elev 951 ft 42.31 °N, 85.25 °W | Updated 15 minutes ago

Clear
Clear
18 °F
Feels Like 8 °F
N
8
Wind Variable Wind from SSW

Today
High -- | Low -- °F
--% Chance of Precip.
Yesterday
High -- | Low -- °F
Precip. -- in
7:55 AM 5:54 PM
Waxing Gibbous, 90% visible
Pressure 30.29 in
Visibility 8.0 miles
Clouds Few 2100 ft
Windchill 8 °F
Dew Point 12 °F
Humidity 78%
Rainfall 0.00 in
Snow Depth Not available.
UV 0 out of 12
Pollen .10 out of 12
Air Quality Not available.
Flu Activity Not available.
METAR KBTL 311353Z 20007KT 8SM FEW021 M08/M11 A3024 RMK AO2 SLP257 T10781111

More Conditions Fewer Conditions

Pressure 30.29 in
Visibility 8.0 miles
Clouds Few 2100 ft
Windchill 8 °F
Dew Point 12 °F
Humidity 78%
Rainfall 0.00 in
Snow Depth Not available.
UV 0 out of 12
Pollen .10 out of 12
Air Quality Not available.
Flu Activity Not available.
METAR KBTL 311353Z 20007KT 8SM FEW021 M08/M11 A3024 RMK AO2 SLP257 T10781111

More Conditions Fewer Conditions

10-Day Weather Forecast

Almanac

Astronomy

Jan. 31, 2015 Rise Set
Actual Time
Civil Twilight
Nautical Twilight
Astronomical Twilight
Moon
Length of Visible Light
Length of Day
Tomorrow will be .
, % of the Moon is Illuminated

Today's Extremes

State Highs State Lows

Community

WunderPhotos

Upload Photos

1,792,058 photos uploaded!

WunderBlogs® & News

Nearby

Air Quality

  Air Quality AQ Index Pollutant
Not available.

Snow Depth

Station Depth Elevation

Earthquake Activity

City Distance Mag. Time & Date
Minimum magnitude displayed is 2.5.

Coastal Water Temperatures

Place Temperature

Nearby Weather Stations